Time;durP1;ratioP1;P1;durP2;ratioP2;P2;SDS_P1;SDS_P2;PMS_P1;PMS_P2;Temp;Humidity;BMP_temperature;BMP_pressure;BME280_temperature;BME280_humidity;BME280_pressure;Samples;Min_cycle;Max_cycle;Signal;HPM_P1;HPM_P2
2022/05/10 00:01:30;;;;;;;4.38;3.90;;;;;;;;;;5112484;28;20075;-40
2022/05/10 00:03:56;;;;;;;4.65;4.10;;;;;;;;;;5108719;28;20073;-39
2022/05/10 00:06:22;;;;;;;5.88;4.93;;;;;;;;;;5109625;28;20071;-40
2022/05/10 00:08:47;;;;;;;11.35;5.63;;;;;;;;;;5108645;28;20071;-42
2022/05/10 00:11:13;;;;;;;5.03;3.70;;;;;;;;;;5113829;28;20039;-42
2022/05/10 00:13:39;;;;;;;4.25;3.80;;;;;;;;;;5107879;28;20040;-41
2022/05/10 00:16:05;;;;;;;7.78;3.67;;;;;;;;;;5113189;28;20046;-41
2022/05/10 00:18:31;;;;;;;6.82;4.00;;;;;;;;;;5112650;28;20158;-40
2022/05/10 00:20:56;;;;;;;4.07;2.65;;;;;;;;;;5111607;28;20043;-46
2022/05/10 00:23:22;;;;;;;7.10;4.35;;;;;;;;;;5109191;28;20112;-42
2022/05/10 00:25:48;;;;;;;14.88;5.25;;;;;;;;;;5111246;28;20043;-39
2022/05/10 00:28:13;;;;;;;5.65;3.85;;;;;;;;;;5114423;28;20484;-42
2022/05/10 00:30:39;;;;;;;6.53;4.38;;;;;;;;;;5105855;28;20040;-42
2022/05/10 00:33:04;;;;;;;19.38;5.22;;;;;;;;;;5111202;28;20048;-40
2022/05/10 00:35:31;;;;;;;10.85;3.92;;;;;;;;;;5110224;28;20035;-44
2022/05/10 00:38:01;;;;;;;4.90;4.43;;;;;;;;;;5109478;28;20031;-39
2022/05/10 00:40:31;;;;;;;23.98;5.47;;;;;;;;;;5108923;28;20122;-45
2022/05/10 00:42:59;;;;;;;6.63;5.25;;;;;;;;;;5114813;28;20071;-39
2022/05/10 00:45:27;;;;;;;5.75;5.15;;;;;;;;;;5107661;28;20150;-44
2022/05/10 00:48:02;;;;;;;6.80;4.47;;;;;;;;;;5110626;28;20073;-39
2022/05/10 00:50:31;;;;;;;7.38;5.85;;;;;;;;;;5105624;28;21244;-41
2022/05/10 00:53:02;;;;;;;6.55;3.67;;;;;;;;;;5112021;28;20059;-42
2022/05/10 00:55:27;;;;;;;;;;;;;;;;;;5110074;28;20111;-42
2022/05/10 00:58:02;;;;;;;3.97;3.10;;;;;;;;;;5111768;28;20332;-39
2022/05/10 01:00:28;;;;;;;6.90;4.18;;;;;;;;;;5112033;28;20331;-43
2022/05/10 01:03:15;;;;;;;4.13;3.33;;;;;;;;;;5108706;28;20054;-42
2022/05/10 01:05:47;;;;;;;9.02;3.40;;;;;;;;;;5109527;28;20055;-47
2022/05/10 01:08:12;;;;;;;5.80;3.50;;;;;;;;;;5111955;28;20134;-41
2022/05/10 01:11:01;;;;;;;3.15;2.38;;;;;;;;;;5111114;28;20131;-40
2022/05/10 01:13:28;;;;;;;6.03;3.40;;;;;;;;;;5096795;28;20040;-41
2022/05/10 01:16:02;;;;;;;8.65;3.17;;;;;;;;;;5106700;28;20035;-44
2022/05/10 01:18:28;;;;;;;4.93;3.17;;;;;;;;;;5108204;28;20040;-39
2022/05/10 01:20:55;;;;;;;3.80;2.72;;;;;;;;;;5109243;28;20477;-41
2022/05/10 01:23:41;;;;;;;4.68;2.90;;;;;;;;;;5110013;28;20048;-39
2022/05/10 01:26:06;;;;;;;3.25;2.88;;;;;;;;;;5062639;28;20055;-39
2022/05/10 01:28:47;;;;;;;5.60;3.35;;;;;;;;;;5108272;28;20044;-40
2022/05/10 01:31:14;;;;;;;4.22;3.35;;;;;;;;;;5110454;28;20052;-39
2022/05/10 01:33:45;;;;;;;4.35;3.50;;;;;;;;;;5112138;28;20414;-39
2022/05/10 01:36:28;;;;;;;18.80;4.32;;;;;;;;;;5110411;28;20047;-39
2022/05/10 01:39:07;;;;;;;3.53;3.20;;;;;;;;;;5109943;28;20380;-40
2022/05/10 01:41:32;;;;;;;5.22;3.50;;;;;;;;;;5110656;28;20163;-40
2022/05/10 01:44:01;;;;;;;10.95;2.97;;;;;;;;;;5113676;28;20083;-39
2022/05/10 01:46:28;;;;;;;4.13;2.80;;;;;;;;;;5109969;28;20076;-39
2022/05/10 01:49:00;;;;;;;6.15;2.92;;;;;;;;;;5102760;28;20530;-40
2022/05/10 01:51:34;;;;;;;4.18;3.15;;;;;;;;;;5106511;28;20054;-39
2022/05/10 01:54:00;;;;;;;5.50;4.40;;;;;;;;;;5107168;28;20065;-42
2022/05/10 01:56:27;;;;;;;9.35;3.33;;;;;;;;;;5107108;27;20048;-42
2022/05/10 01:58:53;;;;;;;3.35;3.03;;;;;;;;;;5115917;28;20050;-39
2022/05/10 02:01:36;;;;;;;7.70;4.22;;;;;;;;;;5114194;28;20051;-41
2022/05/10 02:04:11;;;;;;;5.00;4.03;;;;;;;;;;5117919;28;20043;-42
2022/05/10 02:06:49;;;;;;;6.45;3.20;;;;;;;;;;5111460;28;20519;-44
2022/05/10 02:09:15;;;;;;;3.70;3.35;;;;;;;;;;5113443;28;20062;-44
2022/05/10 02:11:41;;;;;;;8.93;3.47;;;;;;;;;;5112985;28;20051;-42
2022/05/10 02:14:17;;;;;;;4.32;3.92;;;;;;;;;;5112087;28;20070;-38
2022/05/10 02:16:46;;;;;;;3.58;3.03;;;;;;;;;;5109345;28;20052;-41
2022/05/10 02:19:25;;;;;;;6.53;3.78;;;;;;;;;;5107651;28;20047;-41
2022/05/10 02:21:55;;;;;;;3.83;2.40;;;;;;;;;;5110662;28;20088;-38
2022/05/10 02:24:41;;;;;;;4.43;2.58;;;;;;;;;;5118660;28;20099;-38
2022/05/10 02:27:10;;;;;;;7.93;3.40;;;;;;;;;;5099248;28;20044;-40
2022/05/10 02:29:40;;;;;;;6.95;3.92;;;;;;;;;;5111541;28;20058;-38
2022/05/10 02:34:54;;;;;;;4.13;3.03;;;;;;;;;;5112470;28;20061;-40
2022/05/10 02:37:20;;;;;;;6.05;3.05;;;;;;;;;;5115669;28;20503;-43
2022/05/10 02:39:45;;;;;;;4.53;2.88;;;;;;;;;;5114720;28;20491;-40
2022/05/10 02:42:12;;;;;;;3.35;2.60;;;;;;;;;;5110882;28;20531;-40
2022/05/10 02:44:38;;;;;;;4.18;3.00;;;;;;;;;;5111027;28;20059;-40
2022/05/10 02:47:04;;;;;;;4.60;3.13;;;;;;;;;;5113039;28;20478;-38
2022/05/10 02:49:29;;;;;;;7.70;2.72;;;;;;;;;;5111397;28;20145;-40
2022/05/10 02:51:56;;;;;;;4.10;3.40;;;;;;;;;;5113326;28;20138;-37
2022/05/10 02:54:21;;;;;;;4.10;3.70;;;;;;;;;;5111767;28;20039;-38
2022/05/10 02:56:47;;;;;;;4.55;2.60;;;;;;;;;;5117769;28;20532;-37
2022/05/10 02:59:19;;;;;;;8.70;3.33;;;;;;;;;;5112828;28;20027;-37
2022/05/10 03:02:00;;;;;;;6.50;4.00;;;;;;;;;;5109750;28;20038;-39
2022/05/10 03:04:32;;;;;;;5.22;3.40;;;;;;;;;;5111794;28;20092;-38
2022/05/10 03:06:58;;;;;;;3.05;2.75;;;;;;;;;;5112850;28;20183;-40
2022/05/10 03:09:23;;;;;;;6.60;3.45;;;;;;;;;;5107051;28;20072;-39
2022/05/10 03:11:48;;;;;;;14.10;3.30;;;;;;;;;;5111170;28;20039;-39
2022/05/10 03:14:14;;;;;;;4.85;3.42;;;;;;;;;;5113285;28;20703;-38
2022/05/10 03:16:39;;;;;;;5.78;3.53;;;;;;;;;;5106095;28;20070;-39
2022/05/10 03:19:04;;;;;;;6.78;2.67;;;;;;;;;;5115362;28;20082;-39
2022/05/10 03:21:29;;;;;;;3.90;2.83;;;;;;;;;;5110124;28;20054;-40
2022/05/10 03:23:55;;;;;;;2.47;2.28;;;;;;;;;;5116574;28;20082;-38
2022/05/10 03:26:25;;;;;;;6.28;3.53;;;;;;;;;;5109879;28;20183;-39
2022/05/10 03:28:51;;;;;;;6.57;3.85;;;;;;;;;;5109744;28;20043;-40
2022/05/10 03:31:18;;;;;;;6.10;3.38;;;;;;;;;;5107185;28;20532;-41
2022/05/10 03:33:44;;;;;;;12.88;4.15;;;;;;;;;;5109099;28;20043;-38
2022/05/10 03:36:09;;;;;;;7.25;3.00;;;;;;;;;;5111414;28;20050;-37
2022/05/10 03:38:36;;;;;;;4.72;3.17;;;;;;;;;;5109761;28;20043;-42
2022/05/10 03:41:02;;;;;;;4.93;2.47;;;;;;;;;;5109112;28;20476;-37
2022/05/10 03:43:27;;;;;;;7.13;3.63;;;;;;;;;;5110584;28;20039;-38
2022/05/10 03:45:53;;;;;;;8.70;4.13;;;;;;;;;;5110490;28;20099;-39
2022/05/10 03:48:18;;;;;;;9.00;3.15;;;;;;;;;;5112514;28;20519;-41
2022/05/10 03:50:44;;;;;;;6.20;3.70;;;;;;;;;;5109127;28;20193;-39
2022/05/10 03:53:09;;;;;;;5.78;4.30;;;;;;;;;;5109610;28;20566;-38
2022/05/10 03:55:34;;;;;;;3.80;2.60;;;;;;;;;;5111740;28;20060;-37
2022/05/10 03:58:00;;;;;;;8.75;3.05;;;;;;;;;;5113201;28;20042;-41
2022/05/10 04:00:27;;;;;;;5.60;3.97;;;;;;;;;;5107475;28;20048;-38
2022/05/10 04:02:53;;;;;;;6.75;4.20;;;;;;;;;;5116799;28;20093;-39
2022/05/10 04:05:19;;;;;;;32.10;8.23;;;;;;;;;;5107154;28;20047;-38
2022/05/10 04:07:44;;;;;;;4.85;3.75;;;;;;;;;;5111098;28;20032;-40
2022/05/10 04:10:12;;;;;;;4.65;3.38;;;;;;;;;;5110124;28;20070;-38
2022/05/10 04:12:38;;;;;;;12.43;3.90;;;;;;;;;;5111227;28;20697;-38
2022/05/10 04:15:04;;;;;;;5.22;3.67;;;;;;;;;;5107065;28;20036;-41
2022/05/10 04:17:29;;;;;;;4.45;3.05;;;;;;;;;;5109884;28;20642;-38
2022/05/10 04:19:55;;;;;;;3.67;3.22;;;;;;;;;;5115204;28;20509;-40
2022/05/10 04:22:20;;;;;;;6.03;3.63;;;;;;;;;;5104954;28;20051;-39
2022/05/10 04:24:46;;;;;;;5.35;4.32;;;;;;;;;;5108838;28;20071;-39
2022/05/10 04:27:11;;;;;;;5.68;4.53;;;;;;;;;;5110298;28;20151;-38
2022/05/10 04:29:37;;;;;;;6.57;3.95;;;;;;;;;;5108409;28;20131;-38
2022/05/10 04:32:02;;;;;;;6.95;4.47;;;;;;;;;;5107621;28;20425;-38
2022/05/10 04:34:27;;;;;;;3.85;3.38;;;;;;;;;;5111244;28;20526;-40
2022/05/10 04:36:53;;;;;;;7.97;3.63;;;;;;;;;;5109580;28;20047;-41
2022/05/10 04:39:18;;;;;;;5.60;3.50;;;;;;;;;;5110141;28;20063;-37
2022/05/10 04:41:46;;;;;;;8.60;4.68;;;;;;;;;;5110079;28;20028;-39
2022/05/10 04:44:11;;;;;;;3.80;3.15;;;;;;;;;;5106357;28;20107;-38
2022/05/10 04:46:37;;;;;;;8.60;5.00;;;;;;;;;;5110674;28;20684;-40
2022/05/10 04:49:04;;;;;;;18.63;4.63;;;;;;;;;;5108110;28;20123;-41
2022/05/10 04:51:30;;;;;;;8.95;4.18;;;;;;;;;;5109598;28;20139;-43
2022/05/10 04:53:56;;;;;;;4.88;3.88;;;;;;;;;;5112718;28;20130;-40
2022/05/10 04:56:21;;;;;;;13.15;10.38;;;;;;;;;;5111895;28;20052;-38
2022/05/10 04:58:47;;;;;;;11.13;5.28;;;;;;;;;;5113171;28;20066;-38
2022/05/10 05:01:13;;;;;;;25.88;6.18;;;;;;;;;;5109004;28;20565;-41
2022/05/10 05:03:41;;;;;;;12.05;7.05;;;;;;;;;;5106128;28;20587;-40
2022/05/10 05:06:07;;;;;;;10.65;9.63;;;;;;;;;;5109141;28;20043;-39
2022/05/10 05:08:32;;;;;;;8.30;6.10;;;;;;;;;;5111232;28;20097;-37
2022/05/10 05:10:57;;;;;;;8.23;5.03;;;;;;;;;;5107738;28;20568;-39
2022/05/10 05:13:24;;;;;;;8.57;5.57;;;;;;;;;;5110137;28;20046;-39
2022/05/10 05:15:49;;;;;;;8.52;5.15;;;;;;;;;;5107980;28;20032;-39
2022/05/10 05:18:14;;;;;;;7.95;4.70;;;;;;;;;;5110715;28;20084;-37
2022/05/10 05:20:41;;;;;;;18.77;6.30;;;;;;;;;;5112977;28;20458;-37
2022/05/10 05:23:08;;;;;;;10.48;4.82;;;;;;;;;;5111539;28;20122;-39
2022/05/10 05:25:38;;;;;;;16.30;7.72;;;;;;;;;;5106288;28;20051;-40
2022/05/10 05:28:04;;;;;;;8.20;5.53;;;;;;;;;;5107327;28;20442;-39
2022/05/10 05:30:29;;;;;;;6.78;6.10;;;;;;;;;;5104800;28;20513;-38
2022/05/10 05:32:54;;;;;;;5.78;4.78;;;;;;;;;;5110653;28;20051;-38
2022/05/10 05:35:20;;;;;;;4.65;4.00;;;;;;;;;;5107457;28;20087;-38
2022/05/10 05:37:46;;;;;;;23.50;5.93;;;;;;;;;;5107028;28;20048;-39
2022/05/10 05:40:12;;;;;;;6.45;5.10;;;;;;;;;;5113500;28;20032;-39
2022/05/10 05:42:38;;;;;;;9.75;5.53;;;;;;;;;;5112826;28;20118;-38
2022/05/10 05:45:04;;;;;;;10.68;6.15;;;;;;;;;;5112368;28;20123;-39
2022/05/10 05:47:30;;;;;;;13.82;5.65;;;;;;;;;;5110936;28;20074;-40
2022/05/10 05:49:55;;;;;;;12.27;7.70;;;;;;;;;;5112845;28;20459;-43
2022/05/10 05:52:22;;;;;;;6.88;4.45;;;;;;;;;;5111311;28;20053;-37
2022/05/10 05:54:47;;;;;;;13.70;5.28;;;;;;;;;;5113927;28;20123;-38
2022/05/10 05:57:13;;;;;;;7.03;6.00;;;;;;;;;;5113238;28;20126;-42
2022/05/10 05:59:38;;;;;;;8.82;5.53;;;;;;;;;;5114668;28;20031;-46
2022/05/10 06:02:09;;;;;;;13.88;4.63;;;;;;;;;;5113431;28;20047;-38
2022/05/10 06:04:35;;;;;;;5.18;4.63;;;;;;;;;;5113074;28;20031;-43
2022/05/10 06:07:01;;;;;;;20.83;7.10;;;;;;;;;;5110320;28;20223;-40
2022/05/10 06:09:26;;;;;;;7.80;4.75;;;;;;;;;;5115973;28;20154;-48
2022/05/10 06:11:51;;;;;;;11.02;5.18;;;;;;;;;;5112507;28;20082;-45
2022/05/10 06:14:17;;;;;;;3.65;2.72;;;;;;;;;;5109463;28;20136;-44
2022/05/10 06:16:42;;;;;;;14.13;4.90;;;;;;;;;;5112901;28;20051;-43
2022/05/10 06:19:08;;;;;;;9.15;5.22;;;;;;;;;;5113902;28;20054;-40
2022/05/10 06:21:33;;;;;;;17.90;6.50;;;;;;;;;;5113441;28;20505;-45
2022/05/10 06:23:59;;;;;;;7.90;5.97;;;;;;;;;;5112796;28;20039;-42
2022/05/10 06:26:24;;;;;;;11.85;5.47;;;;;;;;;;5114697;28;20487;-42
2022/05/10 06:28:49;;;;;;;34.90;5.60;;;;;;;;;;5105499;28;20134;-44
2022/05/10 06:31:15;;;;;;;9.75;6.32;;;;;;;;;;5112693;28;20047;-44
2022/05/10 06:33:40;;;;;;;12.27;5.90;;;;;;;;;;5108907;28;20078;-43
2022/05/10 06:36:05;;;;;;;6.82;6.18;;;;;;;;;;5107519;28;20659;-43
2022/05/10 06:38:31;;;;;;;18.35;5.90;;;;;;;;;;5107848;28;20649;-40
2022/05/10 06:41:00;;;;;;;10.82;5.35;;;;;;;;;;5114176;28;20040;-48
2022/05/10 06:43:25;;;;;;;11.77;5.93;;;;;;;;;;5114173;28;20403;-39
2022/05/10 06:45:51;;;;;;;8.50;6.22;;;;;;;;;;5114590;28;20121;-43
2022/05/10 06:48:16;;;;;;;5.20;4.32;;;;;;;;;;5114528;28;20408;-42
2022/05/10 06:50:42;;;;;;;9.80;6.45;;;;;;;;;;5109622;28;20157;-41
2022/05/10 06:53:08;;;;;;;15.48;6.10;;;;;;;;;;5113445;28;20050;-41
2022/05/10 06:55:34;;;;;;;13.95;5.75;;;;;;;;;;5109088;28;20039;-54
2022/05/10 06:58:03;;;;;;;6.70;5.95;;;;;;;;;;5111374;28;20039;-55
2022/05/10 07:00:29;;;;;;;8.90;5.38;;;;;;;;;;5109789;28;20066;-55
2022/05/10 07:02:55;;;;;;;12.00;6.53;;;;;;;;;;5109897;28;20054;-54
2022/05/10 07:05:21;;;;;;;13.32;6.20;;;;;;;;;;5111977;28;20047;-56
2022/05/10 07:07:46;;;;;;;19.48;5.88;;;;;;;;;;5111348;28;20542;-56
2022/05/10 07:10:12;;;;;;;9.13;5.10;;;;;;;;;;5109185;28;20062;-56
2022/05/10 07:12:38;;;;;;;21.50;4.65;;;;;;;;;;5110613;28;20052;-56
2022/05/10 07:15:05;;;;;;;11.98;5.22;;;;;;;;;;5107055;28;20051;-56
2022/05/10 07:17:31;;;;;;;10.27;4.20;;;;;;;;;;5110792;28;20054;-56
2022/05/10 07:19:56;;;;;;;13.45;4.63;;;;;;;;;;5112505;28;20039;-55
2022/05/10 07:22:21;;;;;;;9.13;4.30;;;;;;;;;;5114240;28;20056;-56
2022/05/10 07:24:46;;;;;;;15.25;4.63;;;;;;;;;;5106008;28;20779;-53
2022/05/10 07:27:12;;;;;;;7.43;3.67;;;;;;;;;;5113311;28;20042;-56
2022/05/10 07:29:37;;;;;;;8.43;3.83;;;;;;;;;;5111623;28;20039;-56
2022/05/10 07:32:03;;;;;;;5.30;3.55;;;;;;;;;;5114147;28;20126;-53
2022/05/10 07:34:28;;;;;;;8.40;4.57;;;;;;;;;;5112980;28;20573;-53
2022/05/10 07:36:53;;;;;;;8.95;5.88;;;;;;;;;;5107740;28;20053;-53
2022/05/10 07:39:20;;;;;;;13.07;4.85;;;;;;;;;;5108839;28;20484;-56
2022/05/10 07:41:46;;;;;;;6.18;2.83;;;;;;;;;;5111677;28;20482;-55
2022/05/10 07:44:11;;;;;;;5.93;2.58;;;;;;;;;;5109288;28;20059;-55
2022/05/10 07:46:37;;;;;;;14.23;3.45;;;;;;;;;;5114395;28;20051;-56
2022/05/10 07:49:03;;;;;;;34.17;3.15;;;;;;;;;;5116271;28;20125;-56
2022/05/10 07:51:29;;;;;;;3.72;2.03;;;;;;;;;;5114450;28;20477;-57
2022/05/10 07:53:54;;;;;;;3.97;2.42;;;;;;;;;;5108033;27;20069;-56
2022/05/10 07:56:19;;;;;;;9.45;2.90;;;;;;;;;;5112354;28;20126;-54
2022/05/10 08:13:28;;;;;;;10.75;3.78;;;;;;;;;;5170693;27;20907;-64
2022/05/10 08:15:54;;;;;;;4.43;2.80;;;;;;;;;;5174588;27;20505;-64
2022/05/10 08:18:20;;;;;;;15.80;14.15;;;;;;;;;;5172719;27;20046;-63
2022/05/10 08:20:46;;;;;;;5.85;2.83;;;;;;;;;;5174997;27;20041;-64
2022/05/10 08:23:15;;;;;;;2.95;2.00;;;;;;;;;;5170551;27;20429;-63
2022/05/10 08:25:41;;;;;;;2.65;1.98;;;;;;;;;;5171358;27;20254;-63
2022/05/10 08:28:13;;;;;;;2.92;2.35;;;;;;;;;;5170829;27;20627;-63
2022/05/10 08:30:38;;;;;;;6.65;1.88;;;;;;;;;;5170756;27;20035;-63
2022/05/10 08:33:04;;;;;;;3.80;1.73;;;;;;;;;;5167372;27;20859;-63
2022/05/10 08:35:29;;;;;;;18.23;4.75;;;;;;;;;;5167800;27;20078;-63
2022/05/10 08:37:54;;;;;;;5.18;3.35;;;;;;;;;;5170310;27;20054;-62
2022/05/10 08:40:27;;;;;;;5.30;3.03;;;;;;;;;;5171677;27;20119;-63
2022/05/10 08:42:54;;;;;;;4.50;1.92;;;;;;;;;;5171708;27;20042;-63
2022/05/10 08:45:21;;;;;;;20.85;4.20;;;;;;;;;;5171461;27;20090;-63
2022/05/10 08:47:47;;;;;;;36.60;4.65;;;;;;;;;;5171752;27;20043;-63
2022/05/10 08:50:13;;;;;;;136.98;24.45;;;;;;;;;;5171833;27;20046;-63
2022/05/10 08:52:40;;;;;;;20.25;4.25;;;;;;;;;;5173502;27;20043;-63
2022/05/10 08:55:08;;;;;;;3.47;2.13;;;;;;;;;;5173880;27;20145;-63
2022/05/10 08:57:39;;;;;;;7.05;2.22;;;;;;;;;;5172301;27;20417;-62
2022/05/10 09:00:07;;;;;;;5.72;2.63;;;;;;;;;;5173329;27;20085;-63
2022/05/10 09:02:35;;;;;;;64.35;7.60;;;;;;;;;;5168401;27;20130;-63
2022/05/10 09:05:16;;;;;;;10.45;3.65;;;;;;;;;;5173608;27;20034;-63
2022/05/10 09:07:51;;;;;;;2.33;1.65;;;;;;;;;;5171689;27;20038;-62
2022/05/10 09:10:19;;;;;;;10.18;1.67;;;;;;;;;;5171058;27;20125;-63
2022/05/10 09:12:48;;;;;;;8.60;1.80;;;;;;;;;;5166555;27;20057;-65
2022/05/10 09:15:14;;;;;;;3.75;1.35;;;;;;;;;;5158073;27;20054;-63
2022/05/10 09:17:40;;;;;;;3.92;1.27;;;;;;;;;;5157669;27;20130;-62
2022/05/10 09:20:06;;;;;;;1.75;1.20;;;;;;;;;;5159518;27;20050;-63
2022/05/10 09:22:34;;;;;;;1.42;0.90;;;;;;;;;;5140479;27;20159;-60
2022/05/10 09:25:01;;;;;;;2.20;1.45;;;;;;;;;;5156963;27;20054;-63
2022/05/10 09:27:31;;;;;;;2.58;1.85;;;;;;;;;;5157367;27;20548;-63
2022/05/10 09:29:56;;;;;;;1.55;1.25;;;;;;;;;;5155813;27;20508;-63
2022/05/10 09:35:13;;;;;;;2.00;1.27;;;;;;;;;;5157441;27;20045;-63
2022/05/10 09:37:38;;;;;;;6.55;2.13;;;;;;;;;;5159128;27;20038;-63
2022/05/10 09:40:22;;;;;;;2.40;1.83;;;;;;;;;;5159157;27;20589;-63
2022/05/10 09:42:53;;;;;;;11.80;1.67;;;;;;;;;;5156528;27;20038;-63
2022/05/10 09:45:18;;;;;;;;;;;;;;;;;;5160097;27;20066;-63
2022/05/10 09:47:58;;;;;;;3.85;1.48;;;;;;;;;;5160677;27;19965;-63
2022/05/10 09:50:27;;;;;;;18.52;1.70;;;;;;;;;;5156906;27;20098;-63
2022/05/10 09:53:05;;;;;;;3.38;1.38;;;;;;;;;;5160485;27;20051;-62
2022/05/10 09:55:31;;;;;;;2.00;1.13;;;;;;;;;;5161425;27;20919;-61
2022/05/10 09:57:57;;;;;;;3.28;0.63;;;;;;;;;;5159117;27;20034;-61
2022/05/10 10:00:51;;;;;;;0.82;0.47;;;;;;;;;;5155047;27;20046;-60
2022/05/10 10:03:28;;;;;;;0.43;0.40;;;;;;;;;;5156016;27;20042;-58
2022/05/10 10:05:56;;;;;;;0.63;0.30;;;;;;;;;;5152621;27;20584;-58
2022/05/10 10:08:57;;;;;;;0.90;0.55;;;;;;;;;;5153802;27;20046;-59
2022/05/10 10:11:23;;;;;;;2.63;0.60;;;;;;;;;;5059245;28;20071;-58
2022/05/10 10:13:54;;;;;;;7.10;1.58;;;;;;;;;;5133260;27;20085;-59
2022/05/10 10:16:24;;;;;;;49.55;4.45;;;;;;;;;;5154649;27;20569;-59
2022/05/10 10:18:52;;;;;;;1.33;0.57;;;;;;;;;;5152435;27;20062;-59
2022/05/10 10:21:41;;;;;;;5.32;0.60;;;;;;;;;;5156557;27;20042;-60
2022/05/10 10:24:06;;;;;;;14.27;2.67;;;;;;;;;;5155723;27;20035;-59
2022/05/10 10:26:35;;;;;;;9.02;1.52;;;;;;;;;;5132595;27;20050;-60
2022/05/10 10:29:19;;;;;;;4.00;2.03;;;;;;;;;;5153695;27;20122;-59
2022/05/10 10:31:55;;;;;;;4.47;1.75;;;;;;;;;;5153966;27;20054;-57
2022/05/10 10:34:41;;;;;;;15.73;4.05;;;;;;;;;;5151619;27;20167;-57
2022/05/10 10:37:09;;;;;;;11.50;2.45;;;;;;;;;;5098753;27;20082;-57
2022/05/10 10:39:34;;;;;;;2.97;1.25;;;;;;;;;;5159428;27;20403;-58
2022/05/10 10:42:06;;;;;;;1.40;1.02;;;;;;;;;;5155170;27;20095;-58
2022/05/10 10:44:34;;;;;;;1.23;0.68;;;;;;;;;;5154746;27;20046;-60
2022/05/10 10:47:38;;;;;;;1.65;0.60;;;;;;;;;;5156245;27;20039;-58
2022/05/10 10:50:16;;;;;;;1.13;0.50;;;;;;;;;;5075353;28;20055;-57
2022/05/10 10:52:41;;;;;;;3.42;0.40;;;;;;;;;;5078361;28;20044;-60
2022/05/10 10:55:07;;;;;;;0.95;0.70;;;;;;;;;;5118357;27;20111;-60
2022/05/10 10:57:45;;;;;;;7.53;1.77;;;;;;;;;;5156328;27;20030;-60
2022/05/10 11:00:16;;;;;;;12.30;1.52;;;;;;;;;;5153007;27;20041;-60
2022/05/10 11:02:42;;;;;;;3.85;1.08;;;;;;;;;;5136073;27;20043;-60
2022/05/10 11:05:23;;;;;;;2.83;1.67;;;;;;;;;;5152818;27;20069;-57
2022/05/10 11:07:51;;;;;;;3.78;2.05;;;;;;;;;;5156209;27;20666;-56
2022/05/10 11:10:22;;;;;;;3.58;1.92;;;;;;;;;;5155584;27;20050;-57
2022/05/10 11:12:47;;;;;;;6.53;3.00;;;;;;;;;;5159105;27;20046;-61
2022/05/10 11:15:28;;;;;;;7.55;3.08;;;;;;;;;;5158534;27;20065;-60
2022/05/10 11:18:13;;;;;;;11.65;1.45;;;;;;;;;;5155199;27;20054;-61
2022/05/10 11:20:44;;;;;;;4.15;2.15;;;;;;;;;;5156653;27;20043;-59
2022/05/10 11:23:13;;;;;;;10.77;2.92;;;;;;;;;;5158464;27;20074;-61
2022/05/10 11:25:47;;;;;;;16.80;3.58;;;;;;;;;;5153548;27;20074;-60
2022/05/10 11:28:23;;;;;;;3.72;2.15;;;;;;;;;;5159159;27;20040;-61
2022/05/10 11:31:07;;;;;;;3.97;2.13;;;;;;;;;;5155811;27;20129;-60
2022/05/10 11:33:40;;;;;;;12.15;3.08;;;;;;;;;;5155024;27;20030;-61
2022/05/10 11:36:14;;;;;;;3.10;1.67;;;;;;;;;;5153349;27;20035;-57
2022/05/10 11:38:40;;;;;;;29.38;2.25;;;;;;;;;;5155929;27;20032;-57
2022/05/10 11:41:14;;;;;;;15.88;2.20;;;;;;;;;;5153357;27;20089;-52
2022/05/10 11:43:58;;;;;;;1.00;0.70;;;;;;;;;;5157299;27;20038;-58
2022/05/10 11:46:31;;;;;;;3.95;1.52;;;;;;;;;;5156598;27;20183;-58
2022/05/10 11:49:15;;;;;;;3.78;1.65;;;;;;;;;;5157363;27;20374;-57
2022/05/10 11:51:55;;;;;;;5.78;2.17;;;;;;;;;;5157995;27;20050;-57
2022/05/10 11:54:39;;;;;;;13.20;3.13;;;;;;;;;;5155104;27;20047;-58
2022/05/10 11:57:09;;;;;;;12.80;2.85;;;;;;;;;;5155567;27;20486;-58
2022/05/10 11:59:37;;;;;;;1.23;0.53;;;;;;;;;;5154952;27;20050;-58
2022/05/10 12:02:03;;;;;;;2.42;1.85;;;;;;;;;;5157427;27;20038;-58
2022/05/10 12:04:28;;;;;;;3.90;2.80;;;;;;;;;;5155973;27;20077;-58
2022/05/10 12:06:54;;;;;;;4.60;1.55;;;;;;;;;;5156601;27;20495;-57
2022/05/10 12:09:39;;;;;;;7.10;3.88;;;;;;;;;;5157069;27;20041;-59
2022/05/10 12:12:05;;;;;;;2.00;1.27;;;;;;;;;;5153474;27;20557;-59
2022/05/10 12:23:14;;;;;;;2.72;1.23;;;;;;;;;;5151307;27;20102;-58
2022/05/10 12:26:01;;;;;;;3.80;0.93;;;;;;;;;;5134844;27;20138;-58
2022/05/10 12:28:39;;;;;;;3.63;1.17;;;;;;;;;;5154666;27;20545;-59
2022/05/10 12:31:23;;;;;;;2.38;1.13;;;;;;;;;;5159090;27;20112;-59
2022/05/10 12:34:21;;;;;;;4.50;2.33;;;;;;;;;;5156782;27;20462;-58
2022/05/10 12:36:46;;;;;;;5.03;0.88;;;;;;;;;;5120838;27;20034;-57
2022/05/10 12:39:17;;;;;;;7.70;1.52;;;;;;;;;;5154792;27;20038;-58
2022/05/10 12:41:43;;;;;;;;;;;;;;;;;;5155721;27;20578;-59
2022/05/10 12:44:11;;;;;;;3.90;1.88;;;;;;;;;;5154955;27;19971;-59
2022/05/10 12:46:45;;;;;;;8.63;2.25;;;;;;;;;;5155276;27;20038;-59
2022/05/10 12:49:22;;;;;;;2.42;1.35;;;;;;;;;;5154701;27;20057;-49
2022/05/10 12:52:10;;;;;;;3.97;1.25;;;;;;;;;;5155943;27;20521;-63
2022/05/10 12:54:43;;;;;;;6.93;1.92;;;;;;;;;;5159454;27;20070;-61
2022/05/10 12:57:25;;;;;;;6.78;2.60;;;;;;;;;;5158700;27;20121;-61
2022/05/10 13:00:00;;;;;;;9.68;1.45;;;;;;;;;;5159105;27;20073;-57
2022/05/10 13:02:27;;;;;;;4.10;1.17;;;;;;;;;;5155031;27;20522;-56
2022/05/10 13:04:55;;;;;;;6.60;1.75;;;;;;;;;;5156319;27;20091;-58
2022/05/10 13:07:20;;;;;;;1.65;1.27;;;;;;;;;;5160335;27;20047;-57
2022/05/10 13:09:56;;;;;;;2.88;1.63;;;;;;;;;;5158955;27;20038;-56
2022/05/10 13:12:30;;;;;;;12.05;1.88;;;;;;;;;;5156481;27;20043;-53
2022/05/10 13:15:08;;;;;;;5.95;1.73;;;;;;;;;;5161453;27;20050;-58
2022/05/10 13:17:34;;;;;;;3.17;1.20;;;;;;;;;;5157952;27;20066;-57
2022/05/10 13:20:00;;;;;;;12.43;1.55;;;;;;;;;;5158248;27;20578;-57
2022/05/10 13:22:27;;;;;;;1.63;0.85;;;;;;;;;;5158946;27;20038;-57
2022/05/10 13:24:53;;;;;;;7.47;2.50;;;;;;;;;;5155975;27;20035;-59
2022/05/10 13:27:26;;;;;;;4.35;1.70;;;;;;;;;;5156910;27;20117;-53
2022/05/10 13:29:52;;;;;;;8.52;1.75;;;;;;;;;;5155636;27;20045;-58
2022/05/10 13:32:27;;;;;;;3.05;1.13;;;;;;;;;;5158738;27;20034;-56
2022/05/10 13:34:53;;;;;;;4.75;1.90;;;;;;;;;;5161912;27;20050;-58
2022/05/10 13:37:23;;;;;;;2.78;1.58;;;;;;;;;;5159766;27;20042;-57
2022/05/10 13:39:48;;;;;;;5.22;1.42;;;;;;;;;;5158644;27;20042;-56
2022/05/10 13:42:14;;;;;;;3.17;1.73;;;;;;;;;;5157629;27;20045;-58
2022/05/10 13:44:40;;;;;;;3.70;0.93;;;;;;;;;;5159742;27;20050;-58
2022/05/10 13:47:14;;;;;;;7.25;1.30;;;;;;;;;;5159300;27;20054;-57
2022/05/10 13:49:44;;;;;;;4.20;0.90;;;;;;;;;;5158193;27;20040;-58
2022/05/10 13:52:25;;;;;;;1.10;0.70;;;;;;;;;;5160144;27;20049;-59
2022/05/10 13:54:55;;;;;;;0.90;0.60;;;;;;;;;;5154215;27;20129;-58
2022/05/10 13:57:25;;;;;;;0.65;0.52;;;;;;;;;;5154857;27;20038;-59
2022/05/10 13:59:51;;;;;;;0.63;0.53;;;;;;;;;;5160130;27;20103;-58
2022/05/10 14:02:16;;;;;;;1.88;0.95;;;;;;;;;;5158141;27;20054;-58
2022/05/10 14:04:44;;;;;;;1.63;0.98;;;;;;;;;;5156088;27;20046;-58
2022/05/10 14:07:12;;;;;;;5.90;1.55;;;;;;;;;;5156731;27;20073;-59
2022/05/10 14:09:40;;;;;;;2.13;1.13;;;;;;;;;;5158235;27;20046;-58
2022/05/10 14:12:11;;;;;;;2.05;1.45;;;;;;;;;;5156708;27;20062;-58
2022/05/10 14:14:36;;;;;;;0.85;0.70;;;;;;;;;;5157410;27;20081;-59
2022/05/10 14:17:03;;;;;;;3.65;1.08;;;;;;;;;;5156542;27;20070;-59
2022/05/10 14:19:33;;;;;;;4.97;0.85;;;;;;;;;;5153442;27;20081;-59
2022/05/10 14:22:04;;;;;;;1.98;0.90;;;;;;;;;;5158172;27;20082;-59
2022/05/10 14:24:31;;;;;;;30.85;3.13;;;;;;;;;;5156738;27;20034;-59
2022/05/10 14:27:05;;;;;;;1.05;0.60;;;;;;;;;;5159485;27;20045;-59
2022/05/10 14:29:35;;;;;;;5.53;1.33;;;;;;;;;;5158834;27;20198;-59
2022/05/10 14:32:05;;;;;;;2.10;0.70;;;;;;;;;;5155876;27;20146;-59
2022/05/10 14:34:44;;;;;;;3.85;0.88;;;;;;;;;;5159744;27;20045;-59
2022/05/10 14:37:09;;;;;;;1.75;0.95;;;;;;;;;;5155771;27;20045;-59
2022/05/10 14:39:37;;;;;;;8.35;2.60;;;;;;;;;;5157226;27;20046;-59
2022/05/10 14:42:04;;;;;;;1.35;1.05;;;;;;;;;;5158110;27;20050;-59
2022/05/10 14:44:35;;;;;;;2.70;0.90;;;;;;;;;;5157698;27;20122;-59
2022/05/10 14:47:01;;;;;;;1.27;0.95;;;;;;;;;;5159570;27;20042;-59
2022/05/10 14:49:38;;;;;;;1.90;0.95;;;;;;;;;;5154812;27;20053;-57
2022/05/10 14:52:22;;;;;;;6.55;1.60;;;;;;;;;;5158410;27;20117;-58
2022/05/10 14:54:48;;;;;;;9.45;4.63;;;;;;;;;;5158986;27;20050;-58
2022/05/10 14:57:21;;;;;;;1.48;1.00;;;;;;;;;;5157679;27;20046;-59
2022/05/10 14:59:51;;;;;;;1.33;0.82;;;;;;;;;;5155325;27;20116;-58
2022/05/10 15:02:37;;;;;;;4.97;1.10;;;;;;;;;;5159426;27;20069;-58
2022/05/10 15:05:10;;;;;;;5.10;1.40;;;;;;;;;;5159115;27;20761;-58
2022/05/10 15:07:35;;;;;;;12.25;2.38;;;;;;;;;;5155592;27;20042;-58
2022/05/10 15:10:00;;;;;;;10.80;2.40;;;;;;;;;;5152338;27;20049;-59
2022/05/10 15:15:11;;;;;;;8.05;0.73;;;;;;;;;;5156321;27;20086;-59
2022/05/10 15:20:22;;;;;;;7.13;1.38;;;;;;;;;;5154836;27;20069;-58
2022/05/10 15:22:47;;;;;;;4.18;1.55;;;;;;;;;;5153438;27;20498;-58
2022/05/10 15:25:13;;;;;;;7.15;1.42;;;;;;;;;;5154804;27;20042;-57
2022/05/10 15:27:38;;;;;;;2.05;1.15;;;;;;;;;;5157005;27;20041;-58